Dawson, ND (58428)

3:39 PM CDT on August 01, 2015 (GMT -0500)
58th St SE | | Change Station
CLOSE
Current Station
Personal Weather Station
Location: Napoleon, ND
Elevation: 2014 ft
Nearby Weather Stations

Elev 2014 ft 46.57 °N, 99.72 °W | Updated 6 seconds ago

Clear
Clear
87.1 °F
Feels Like 88 °F
N
3.0
Wind Variable Wind from WNW
Gusts 6.0 mph

Today
High -- | Low -- °F
--% Chance of Precip.
Yesterday
High -- | Low -- °F
Precip. -- in
6:18 AM 9:11 PM
Full, 97% visible
Pressure 29.82 in
Visibility 10.0 miles
Clouds Clear
Heat Index 88 °F
Dew Point 64 °F
Humidity 46%
Rainfall -999.00 in
Snow Depth Not available.
UV 9 out of 12
Pollen 7.10 out of 12
Air Quality Not available.
Flu Activity Not available.
METAR K7L2 012015Z AUTO 32009G15KT 10SM CLR 32/18 A2982 RMK AO2

More Conditions Fewer Conditions

Pressure 29.82 in
Visibility 10.0 miles
Clouds Clear
Heat Index 88 °F
Dew Point 64 °F
Humidity 46%
Rainfall -999.00 in
Snow Depth Not available.
UV 9 out of 12
Pollen 7.10 out of 12
Air Quality Not available.
Flu Activity Not available.
METAR K7L2 012015Z AUTO 32009G15KT 10SM CLR 32/18 A2982 RMK AO2

More Conditions Fewer Conditions

10-Day Weather Forecast

×

Almanac

Astronomy

Aug. 01, 2015 Rise Set
Actual Time
Civil Twilight
Nautical Twilight
Astronomical Twilight
Moon
Length of Visible Light
Length of Day
Tomorrow will be .
, % of the Moon is Illuminated

Today's Extremes

State Highs State Lows

Community

WunderPhotos

Upload Photos

1,843,050 photos uploaded!

WunderBlogs® & News

Nearby

Air Quality

  Air Quality AQ Index Pollutant
Not available.

Snow Depth

Station Depth Elevation

Earthquake Activity

City Distance Mag. Time & Date
Minimum magnitude displayed is 2.5.

Coastal Water Temperatures

Place Temperature

Stations

Nearby Weather Stations

Station Location Temp. Windchill Dew Point Humidity Wind Precip. Elev Updated Type